createdAt,value
2019-02-23T00:01:13.305Z,104183.09
2019-02-23T00:04:21.798Z,104179.88
2019-02-23T00:07:30.657Z,104162.22
2019-02-23T00:10:40.203Z,104158.28
2019-02-23T00:13:48.781Z,104137.21
2019-02-23T00:16:57.406Z,104125.89
2019-02-23T00:20:07.841Z,104126.36
2019-02-23T00:23:16.300Z,104111.50
2019-02-23T00:26:24.769Z,104102.97
2019-02-23T00:29:33.262Z,104102.47
2019-02-23T00:32:52.066Z,104093.81
2019-02-23T00:36:00.748Z,104099.60
2019-02-23T00:39:09.415Z,104090.50
2019-02-23T00:42:17.980Z,104099.23
2019-02-23T00:45:26.573Z,104106.78
2019-02-23T00:48:35.156Z,104094.20
2019-02-23T00:51:43.747Z,104090.91
2019-02-23T00:55:02.653Z,104091.28
2019-02-23T00:58:12.750Z,104093.78
2019-02-23T01:01:21.239Z,104086.91
2019-02-23T01:04:30.059Z,104094.00
2019-02-23T01:07:38.766Z,104088.66
2019-02-23T01:10:57.463Z,104084.10
2019-02-23T01:13:57.631Z,104082.23
2019-02-23T01:17:16.420Z,104082.97
2019-02-23T01:20:25.027Z,104070.47
2019-02-23T01:23:33.591Z,104062.88
2019-02-23T01:26:42.195Z,104062.86
2019-02-23T01:29:50.777Z,104066.13
2019-02-23T01:32:59.265Z,104060.86
2019-02-23T01:36:18.245Z,104068.67
2019-02-23T01:39:26.832Z,104070.57
2019-02-23T01:42:35.530Z,104078.58
2019-02-23T01:45:44.102Z,104079.45
2019-02-23T01:48:52.700Z,104074.23
2019-02-23T01:52:01.280Z,104075.30
2019-02-23T01:55:10.764Z,104073.58
2019-02-23T01:58:19.271Z,104083.92
2019-02-23T02:01:28.076Z,104079.70
2019-02-23T02:04:36.713Z,104089.01
2019-02-23T02:07:45.291Z,104094.85
2019-02-23T02:11:03.978Z,104091.78
2019-02-23T02:14:12.581Z,104095.83
2019-02-23T02:17:21.122Z,104093.65
2019-02-23T02:20:29.756Z,104105.31
2019-02-23T02:23:39.700Z,104106.14
2019-02-23T02:26:58.485Z,104115.99
2019-02-23T02:30:10.912Z,104125.30
2019-02-23T02:33:19.473Z,104127.20
2019-02-23T02:36:29.037Z,104139.07
2019-02-23T02:39:37.634Z,104129.62
2019-02-23T02:42:46.395Z,104130.36
2019-02-23T02:45:54.972Z,104125.33
2019-02-23T02:49:13.874Z,104125.30
2019-02-23T02:52:22.442Z,104117.69
2019-02-23T02:55:31.020Z,104122.16
2019-02-23T02:58:40.735Z,104104.45
2019-02-23T03:01:59.590Z,104094.44
2019-02-23T03:05:08.227Z,104103.17
2019-02-23T03:08:16.486Z,104109.12
2019-02-23T03:11:25.048Z,104103.66
2019-02-23T03:14:43.798Z,104101.75
2019-02-23T03:18:03.132Z,104094.06
2019-02-23T03:21:11.725Z,104097.08
2019-02-23T03:24:20.318Z,104085.58
2019-02-23T03:27:40.066Z,104097.95
2019-02-23T03:30:48.657Z,104087.77
2019-02-23T03:33:57.234Z,104091.58
2019-02-23T03:37:05.807Z,104088.80
2019-02-23T03:40:14.292Z,104090.13
2019-02-23T03:43:33.038Z,104092.91
2019-02-23T03:46:41.633Z,104096.88
2019-02-23T03:49:50.218Z,104094.26
2019-02-23T03:52:58.792Z,104097.17
2019-02-23T03:56:07.376Z,104099.94
2019-02-23T03:59:16.083Z,104099.94
2019-02-23T04:02:34.783Z,104095.41
2019-02-23T04:05:43.370Z,104102.02
2019-02-23T04:08:52.032Z,104093.84
2019-02-23T04:12:00.610Z,104098.98
2019-02-23T04:15:09.405Z,104091.28
2019-02-23T04:18:18.079Z,104078.13
2019-02-23T04:21:26.667Z,104078.95
2019-02-23T04:24:35.222Z,104079.28
2019-02-23T04:27:54.153Z,104083.05
2019-02-23T04:31:22.012Z,104080.72
2019-02-23T04:34:30.573Z,104074.81
2019-02-23T04:37:39.055Z,104084.02
2019-02-23T04:40:47.676Z,104083.61
2019-02-23T04:43:56.317Z,104084.42
2019-02-23T04:47:15.119Z,104074.55
2019-02-23T04:50:23.728Z,104078.13
2019-02-23T04:53:32.308Z,104086.59
2019-02-23T04:56:41.190Z,104091.77
2019-02-23T04:59:49.667Z,104102.45
2019-02-23T05:02:58.274Z,104111.53
2019-02-23T05:06:07.043Z,104122.77
2019-02-23T05:09:15.149Z,104119.19
2019-02-23T05:12:23.932Z,104127.73
2019-02-23T05:15:32.483Z,104134.00
2019-02-23T05:18:41.137Z,104156.61
2019-02-23T05:21:49.741Z,104151.46
2019-02-23T05:25:00.573Z,104140.41
2019-02-23T05:28:09.187Z,104139.81
2019-02-23T05:31:17.774Z,104139.27
2019-02-23T05:34:26.242Z,104130.27
2019-02-23T05:37:34.837Z,104118.44
2019-02-23T05:40:53.792Z,104115.52
2019-02-23T05:44:21.688Z,104121.61
2019-02-23T05:47:30.283Z,104117.86
2019-02-23T05:50:38.761Z,104103.25
2019-02-23T05:53:47.537Z,104105.46
2019-02-23T05:56:56.168Z,104110.09
2019-02-23T06:00:06.039Z,104113.17
2019-02-23T06:03:14.529Z,104113.80
2019-02-23T06:06:23.110Z,104126.31
2019-02-23T06:09:31.721Z,104138.27
2019-02-23T06:12:40.419Z,104133.41
2019-02-23T06:15:49.081Z,104137.57
2019-02-23T06:18:57.686Z,104126.04
2019-02-23T06:22:06.305Z,104125.86
2019-02-23T06:25:25.011Z,104113.64
2019-02-23T06:28:33.684Z,104100.28
2019-02-23T06:31:42.254Z,104107.71
2019-02-23T06:34:50.849Z,104103.63
2019-02-23T06:37:59.452Z,104102.62
2019-02-23T06:41:08.127Z,104109.66
2019-02-23T06:44:16.746Z,104105.64
2019-02-23T06:47:35.582Z,104111.08
2019-02-23T06:50:44.161Z,104113.37
2019-02-23T06:53:52.756Z,104120.45
2019-02-23T06:57:01.608Z,104130.60
2019-02-23T07:00:14.007Z,104130.92
2019-02-23T07:03:22.501Z,104136.75
2019-02-23T07:06:31.107Z,104138.04
2019-02-23T07:09:39.335Z,104134.65
2019-02-23T07:12:58.475Z,104127.38
2019-02-23T07:16:07.110Z,104128.20
2019-02-23T07:19:15.619Z,104124.86
2019-02-23T07:22:24.195Z,104124.25
2019-02-23T07:25:31.382Z,104115.89
2019-02-23T07:28:39.879Z,104116.66
2019-02-23T07:31:48.456Z,104112.61
2019-02-23T07:34:57.049Z,104113.76
2019-02-23T07:38:16.279Z,104114.99
2019-02-23T07:41:35.244Z,104115.13
2019-02-23T07:44:43.772Z,104121.19
2019-02-23T07:47:52.352Z,104108.91
2019-02-23T07:51:00.955Z,104097.50
2019-02-23T07:54:09.454Z,104100.02
2019-02-23T07:57:31.263Z,104093.52
2019-02-23T08:00:40.864Z,104097.56
2019-02-23T08:03:49.357Z,104097.42
2019-02-23T08:07:08.218Z,104081.17
2019-02-23T08:10:16.817Z,104084.81
2019-02-23T08:13:25.393Z,104087.30
2019-02-23T08:16:33.889Z,104087.03
2019-02-23T08:19:42.497Z,104088.89
2019-02-23T08:22:51.094Z,104078.91
2019-02-23T08:26:10.193Z,104072.91
2019-02-23T08:29:18.803Z,104074.19
2019-02-23T08:32:27.384Z,104066.41
2019-02-23T08:35:35.882Z,104071.16
2019-02-23T08:38:44.459Z,104062.07
2019-02-23T08:41:53.073Z,104063.68
2019-02-23T08:45:01.661Z,104054.28
2019-02-23T08:48:20.539Z,104041.92
2019-02-23T08:51:29.221Z,104047.39
2019-02-23T08:54:37.929Z,104038.33
2019-02-23T08:57:46.643Z,104031.01
2019-02-23T09:00:55.250Z,104037.45
2019-02-23T09:04:03.816Z,104039.31
2019-02-23T09:07:12.994Z,104051.02
2019-02-23T09:10:21.722Z,104041.05
2019-02-23T09:13:30.369Z,104051.02
2019-02-23T09:16:39.032Z,104057.49
2019-02-23T09:19:47.765Z,104075.36
2019-02-23T09:23:00.199Z,104076.83
2019-02-23T09:26:06.650Z,104088.34
2019-02-23T09:29:25.520Z,104080.79
2019-02-23T09:32:35.118Z,104079.94
2019-02-23T09:35:43.639Z,104080.28
2019-02-23T09:39:02.483Z,104070.02
2019-02-23T09:42:11.081Z,104072.52
2019-02-23T09:45:19.676Z,104079.61
2019-02-23T09:48:28.261Z,104076.47
2019-02-23T09:51:36.857Z,104060.20
2019-02-23T09:54:45.440Z,104057.84
2019-02-23T09:58:04.284Z,104047.19
2019-02-23T10:01:12.877Z,104040.61
2019-02-23T10:04:59.673Z,104057.31
2019-02-23T10:08:08.192Z,104055.17
2019-02-23T10:11:16.715Z,104058.25
2019-02-23T10:14:35.579Z,104065.75
2019-02-23T10:17:44.068Z,104076.14
2019-02-23T10:20:52.685Z,104076.20
2019-02-23T10:24:01.308Z,104077.02
2019-02-23T10:27:09.908Z,104066.48
2019-02-23T10:30:19.743Z,104068.71
2019-02-23T10:33:29.908Z,104063.69
2019-02-23T10:36:38.412Z,104057.72
2019-02-23T10:39:47.021Z,104062.22
2019-02-23T10:42:55.509Z,104049.64
2019-02-23T10:46:04.117Z,104046.19
2019-02-23T10:49:22.953Z,104033.53
2019-02-23T10:52:31.553Z,104032.05
2019-02-23T10:55:40.033Z,104025.44
2019-02-23T10:58:48.683Z,104017.77
2019-02-23T11:01:57.184Z,104008.47
2019-02-23T11:05:16.344Z,104010.58
2019-02-23T11:08:35.301Z,104009.58
2019-02-23T11:11:43.889Z,104013.31
2019-02-23T11:14:52.458Z,104016.06
2019-02-23T11:18:02.882Z,104008.66
2019-02-23T11:21:11.569Z,104010.38
2019-02-23T11:24:20.111Z,104014.81
2019-02-23T11:27:28.610Z,104023.83
2019-02-23T11:30:47.722Z,104021.19
2019-02-23T11:33:56.343Z,104026.95
2019-02-23T11:37:05.011Z,104029.15
2019-02-23T11:40:13.730Z,104030.05
2019-02-23T11:43:22.637Z,104028.80
2019-02-23T11:46:59.170Z,104024.43
2019-02-23T11:49:52.336Z,104020.80
2019-02-23T11:53:00.840Z,104014.23
2019-02-23T11:56:09.481Z,104009.11
2019-02-23T11:59:18.015Z,103997.39
2019-02-23T12:02:26.666Z,104000.06
2019-02-23T12:05:35.253Z,103996.53
2019-02-23T12:08:54.255Z,103987.70
2019-02-23T12:12:02.838Z,103979.08
2019-02-23T12:15:11.848Z,103966.02
2019-02-23T12:18:20.453Z,103958.11
2019-02-23T12:21:29.041Z,103949.84
2019-02-23T12:24:37.649Z,103952.80
2019-02-23T12:27:46.218Z,103953.89
2019-02-23T12:30:54.889Z,103951.39
2019-02-23T12:34:03.378Z,103950.20
2019-02-23T12:37:22.302Z,103937.23
2019-02-23T12:40:30.932Z,103933.89
2019-02-23T12:43:39.541Z,103934.52
2019-02-23T12:46:48.172Z,103940.78
2019-02-23T12:49:56.839Z,103936.43
2019-02-23T12:53:05.409Z,103930.73
2019-02-23T12:56:13.996Z,103926.86
2019-02-23T12:59:32.974Z,103920.84
2019-02-23T13:02:41.475Z,103919.51
2019-02-23T13:05:49.993Z,103924.94
2019-02-23T13:09:35.669Z,103923.63
2019-02-23T13:13:18.211Z,103917.30
2019-02-23T13:16:49.058Z,103916.16
2019-02-23T13:20:34.413Z,103907.52
2019-02-23T13:24:52.183Z,103902.07
2019-02-23T13:28:50.282Z,103903.88
2019-02-23T13:32:52.119Z,103896.11
2019-02-23T13:36:41.678Z,103893.80
2019-02-23T13:40:46.997Z,103886.96
2019-02-23T13:44:41.096Z,103884.34
2019-02-23T13:49:08.609Z,103882.19
2019-02-23T13:53:22.903Z,103891.77
2019-02-23T13:57:09.378Z,103882.56
2019-02-23T14:01:22.302Z,103881.86
2019-02-23T14:05:15.551Z,103874.03
2019-02-23T14:09:17.454Z,103872.36
2019-02-23T14:12:46.963Z,103868.91
2019-02-23T14:16:26.917Z,103864.98
2019-02-23T14:20:05.102Z,103861.50
2019-02-23T14:24:03.972Z,103868.33
2019-02-23T14:28:14.152Z,103872.34
2019-02-23T14:32:43.952Z,103863.20
2019-02-23T14:36:56.934Z,103869.27
2019-02-23T14:41:27.349Z,103858.45
2019-02-23T14:44:56.191Z,103862.16
2019-02-23T14:49:16.386Z,103863.58
2019-02-23T14:53:03.690Z,103862.20
2019-02-23T14:57:22.979Z,103857.73
2019-02-23T15:01:54.824Z,103865.75
2019-02-23T15:05:40.199Z,103859.36
2019-02-23T15:09:38.808Z,103852.92
2019-02-23T15:13:36.295Z,103857.81
2019-02-23T15:18:12.714Z,103861.48
2019-02-23T15:22:16.963Z,103860.64
2019-02-23T15:26:38.696Z,103857.37
2019-02-23T15:30:20.013Z,103857.34
2019-02-23T15:34:40.438Z,103849.70
2019-02-23T15:38:35.749Z,103853.19
2019-02-23T15:42:42.997Z,103840.78
2019-02-23T15:46:41.544Z,103836.43
2019-02-23T15:50:12.261Z,103830.75
2019-02-23T15:53:10.812Z,103828.13
2019-02-23T15:56:19.386Z,103838.56
2019-02-23T15:59:28.028Z,103832.75
2019-02-23T16:02:36.545Z,103825.60
2019-02-23T16:05:45.089Z,103823.84
2019-02-23T16:09:04.023Z,103824.40
2019-02-23T16:12:12.486Z,103835.60
2019-02-23T16:15:20.969Z,103834.83
2019-02-23T16:18:29.523Z,103832.30
2019-02-23T16:21:38.140Z,103823.96
2019-02-23T16:24:46.641Z,103823.09
2019-02-23T16:28:05.810Z,103822.06
2019-02-23T16:31:14.413Z,103823.53
2019-02-23T16:34:23.053Z,103819.34
2019-02-23T16:37:31.568Z,103813.66
2019-02-23T16:40:40.188Z,103819.51
2019-02-23T16:43:48.857Z,103820.16
2019-02-23T16:46:57.323Z,103818.61
2019-02-23T16:50:16.193Z,103817.24
2019-02-23T16:53:24.663Z,103820.55
2019-02-23T16:56:33.208Z,103818.50
2019-02-23T16:59:41.831Z,103817.66
2019-02-23T17:02:50.434Z,103816.48
2019-02-23T17:06:00.138Z,103824.80
2019-02-23T17:09:10.512Z,103816.99
2019-02-23T17:12:19.225Z,103814.22
2019-02-23T17:15:27.812Z,103813.31
2019-02-23T17:18:36.402Z,103822.77
2019-02-23T17:21:45.075Z,103825.36
2019-02-23T17:24:53.591Z,103828.06
2019-02-23T17:28:12.330Z,103826.22
2019-02-23T17:31:20.941Z,103830.89
2019-02-23T17:34:29.556Z,103832.14
2019-02-23T17:37:38.148Z,103830.95
2019-02-23T17:40:46.817Z,103835.44
2019-02-23T17:43:56.745Z,103831.86
2019-02-23T17:47:05.758Z,103834.48
2019-02-23T17:50:24.593Z,103845.09
2019-02-23T17:53:33.084Z,103837.93
2019-02-23T17:56:41.688Z,103845.73
2019-02-23T17:59:50.599Z,103842.30
2019-02-23T18:02:59.205Z,103839.17
2019-02-23T18:06:07.789Z,103844.08
2019-02-23T18:09:16.499Z,103839.63
2019-02-23T18:12:25.140Z,103852.61
2019-02-23T18:15:33.749Z,103854.18
2019-02-23T18:18:52.670Z,103848.34
2019-02-23T18:22:01.262Z,103848.82
2019-02-23T18:25:10.137Z,103853.80
2019-02-23T18:28:18.662Z,103855.45
2019-02-23T18:31:27.249Z,103853.03
2019-02-23T18:34:35.762Z,103848.50
2019-02-23T18:37:54.445Z,103849.14
2019-02-23T18:41:03.165Z,103843.45
2019-02-23T18:44:11.811Z,103839.52
2019-02-23T18:47:20.384Z,103840.33
2019-02-23T18:50:28.942Z,103838.88
2019-02-23T18:53:37.557Z,103838.07
2019-02-23T18:56:46.135Z,103836.86
2019-02-23T19:00:06.116Z,103840.98
2019-02-23T19:03:14.656Z,103837.58
2019-02-23T19:06:23.237Z,103846.91
2019-02-23T19:09:31.974Z,103840.47
2019-02-23T19:12:50.686Z,103834.13
2019-02-23T19:15:59.200Z,103831.00
2019-02-23T19:19:07.800Z,103834.49
2019-02-23T19:22:16.425Z,103835.86
2019-02-23T19:25:25.110Z,103836.86
2019-02-23T19:28:33.778Z,103843.43
2019-02-23T19:31:42.342Z,103841.14
2019-02-23T19:35:01.341Z,103838.50
2019-02-23T19:38:09.925Z,103841.41
2019-02-23T19:41:19.615Z,103845.57
2019-02-23T19:44:28.213Z,103844.34
2019-02-23T19:47:47.044Z,103838.05
2019-02-23T19:51:03.616Z,103833.64
2019-02-23T19:54:13.739Z,103830.94
2019-02-23T19:57:22.488Z,103828.73
2019-02-23T20:00:31.188Z,103822.40
2019-02-23T20:03:39.822Z,103823.95
2019-02-23T20:06:48.417Z,103824.13
2019-02-23T20:10:08.438Z,103819.21
2019-02-23T20:13:17.130Z,103821.72
2019-02-23T20:16:25.661Z,103818.88
2019-02-23T20:19:34.572Z,103822.08
2019-02-23T20:22:43.078Z,103821.77
2019-02-23T20:25:51.748Z,103825.05
2019-02-23T20:29:10.702Z,103828.91
2019-02-23T20:32:17.714Z,103824.23
2019-02-23T20:35:26.346Z,103831.73
2019-02-23T20:38:35.141Z,103817.54
2019-02-23T20:41:43.734Z,103820.49
2019-02-23T20:44:52.237Z,103821.22
2019-02-23T20:48:01.833Z,103818.24
2019-02-23T20:51:10.440Z,103819.11
2019-02-23T20:54:18.913Z,103810.36
2019-02-23T20:57:27.507Z,103815.08
2019-02-23T21:00:36.215Z,103814.88
2019-02-23T21:03:46.414Z,103808.65
2019-02-23T21:07:06.336Z,103803.73
2019-02-23T21:10:16.173Z,103799.36
2019-02-23T21:13:24.753Z,103796.15
2019-02-23T21:16:45.760Z,103802.95
2019-02-23T21:19:54.334Z,103792.76
2019-02-23T21:23:02.927Z,103795.14
2019-02-23T21:26:11.620Z,103796.13
2019-02-23T21:29:20.362Z,103794.05
2019-02-23T21:32:28.949Z,103796.78
2019-02-23T21:35:37.458Z,103793.75
2019-02-23T21:38:56.715Z,103794.64
2019-02-23T21:42:15.617Z,103784.02
2019-02-23T21:45:24.203Z,103778.14
2019-02-23T21:48:32.852Z,103775.90
2019-02-23T21:51:41.431Z,103774.31
2019-02-23T21:54:50.252Z,103772.75
2019-02-23T21:58:00.000Z,103771.31
2019-02-23T22:01:18.976Z,103777.19
2019-02-23T22:04:27.468Z,103765.45
2019-02-23T22:07:39.250Z,103766.17
2019-02-23T22:10:47.940Z,103760.38
2019-02-23T22:13:56.470Z,103756.44
2019-02-23T22:17:15.145Z,103751.29
2019-02-23T22:20:23.646Z,103743.14
2019-02-23T22:23:32.255Z,103742.51
2019-02-23T22:26:40.828Z,103747.08
2019-02-23T22:29:49.554Z,103746.58
2019-02-23T22:32:58.153Z,103745.56
2019-02-23T22:36:16.886Z,103738.47
2019-02-23T22:39:25.545Z,103736.20
2019-02-23T22:42:34.027Z,103731.32
2019-02-23T22:45:42.628Z,103726.74
2019-02-23T22:48:51.283Z,103721.91
2019-02-23T22:51:59.849Z,103715.88
2019-02-23T22:55:18.706Z,103721.63
2019-02-23T22:58:27.790Z,103720.75
2019-02-23T23:01:47.181Z,103712.19
2019-02-23T23:04:55.680Z,103715.05
2019-02-23T23:08:04.278Z,103716.95
2019-02-23T23:11:12.911Z,103713.59
2019-02-23T23:14:21.486Z,103715.66
2019-02-23T23:17:29.994Z,103713.11
2019-02-23T23:20:38.707Z,103706.91
2019-02-23T23:23:47.282Z,103704.14
2019-02-23T23:27:06.266Z,103712.95
2019-02-23T23:30:15.146Z,103705.45
2019-02-23T23:33:23.722Z,103704.75
2019-02-23T23:36:32.331Z,103699.97
2019-02-23T23:39:41.194Z,103709.03
2019-02-23T23:42:57.827Z,103704.46
2019-02-23T23:46:05.463Z,103715.77
2019-02-23T23:49:14.012Z,103709.39
2019-02-23T23:52:22.690Z,103705.20
2019-02-23T23:55:31.332Z,103709.03
2019-02-23T23:58:40.005Z,103715.45
